createdAt,value
2019-01-10T00:00:49.960Z,11.00
2019-01-10T00:03:19.499Z,11.00
2019-01-10T00:05:49.806Z,11.00
2019-01-10T00:08:20.565Z,11.10
2019-01-10T00:10:49.904Z,11.10
2019-01-10T00:13:19.564Z,11.00
2019-01-10T00:15:48.831Z,11.00
2019-01-10T00:18:19.013Z,11.00
2019-01-10T00:20:48.629Z,11.00
2019-01-10T00:23:20.322Z,11.00
2019-01-10T00:25:49.456Z,11.00
2019-01-10T00:28:19.199Z,11.10
2019-01-10T00:30:49.345Z,11.00
2019-01-10T00:33:18.980Z,11.00
2019-01-10T00:35:48.766Z,10.90
2019-01-10T00:38:19.031Z,10.80
2019-01-10T00:40:48.996Z,10.70
2019-01-10T00:43:18.412Z,10.80
2019-01-10T00:45:48.017Z,10.70
2019-01-10T00:48:17.750Z,10.70
2019-01-10T00:50:47.001Z,10.70
2019-01-10T00:53:16.609Z,10.60
2019-01-10T00:55:46.131Z,10.60
2019-01-10T00:58:16.593Z,10.50
2019-01-10T01:00:47.039Z,10.50
2019-01-10T01:03:16.885Z,10.50
2019-01-10T01:05:46.592Z,10.50
2019-01-10T01:08:16.356Z,10.60
2019-01-10T01:10:47.033Z,10.60
2019-01-10T01:13:16.769Z,10.50
2019-01-10T01:15:47.301Z,10.50
2019-01-10T01:18:16.934Z,10.50
2019-01-10T01:20:46.773Z,10.50
2019-01-10T01:23:16.227Z,10.50
2019-01-10T01:25:46.795Z,10.50
2019-01-10T01:28:16.666Z,10.50
2019-01-10T01:30:46.360Z,10.50
2019-01-10T01:33:15.904Z,10.50
2019-01-10T01:35:45.679Z,10.60
2019-01-10T01:38:15.088Z,10.60
2019-01-10T01:40:45.814Z,10.60
2019-01-10T01:43:20.387Z,10.60
2019-01-10T01:45:51.295Z,10.70
2019-01-10T01:48:23.497Z,10.70
2019-01-10T01:50:53.682Z,10.70
2019-01-10T01:53:24.644Z,10.60
2019-01-10T01:55:55.427Z,10.70
2019-01-10T01:58:24.938Z,10.70
2019-01-10T02:00:55.495Z,10.80
2019-01-10T02:03:25.230Z,10.80
2019-01-10T02:05:55.016Z,10.80
2019-01-10T02:08:24.923Z,10.80
2019-01-10T02:10:58.094Z,10.90
2019-01-10T02:13:28.779Z,10.90
2019-01-10T02:15:58.869Z,11.00
2019-01-10T02:18:28.640Z,11.00
2019-01-10T02:20:58.943Z,11.00
2019-01-10T02:23:28.877Z,11.00
2019-01-10T02:26:02.183Z,11.00
2019-01-10T02:28:32.983Z,11.00
2019-01-10T02:31:03.673Z,10.90
2019-01-10T02:33:33.723Z,11.00
2019-01-10T02:36:04.790Z,11.00
2019-01-10T02:38:35.457Z,11.00
2019-01-10T02:41:04.985Z,11.10
2019-01-10T02:43:34.792Z,11.10
2019-01-10T02:46:04.970Z,11.00
2019-01-10T02:48:34.573Z,11.00
2019-01-10T02:51:04.624Z,11.00
2019-01-10T02:53:34.087Z,10.90
2019-01-10T02:56:03.866Z,10.90
2019-01-10T02:58:33.730Z,10.80
2019-01-10T03:01:03.734Z,10.90
2019-01-10T03:03:35.880Z,10.90
2019-01-10T03:06:06.035Z,10.90
2019-01-10T03:08:35.924Z,10.80
2019-01-10T03:11:05.606Z,10.80
2019-01-10T03:13:36.981Z,10.90
2019-01-10T03:16:06.362Z,10.90
2019-01-10T03:18:36.157Z,10.90
2019-01-10T03:21:05.655Z,11.00
2019-01-10T03:23:37.070Z,11.00
2019-01-10T03:26:07.101Z,10.90
2019-01-10T03:28:36.945Z,10.90
2019-01-10T03:31:07.097Z,10.90
2019-01-10T03:33:37.076Z,11.00
2019-01-10T03:36:06.329Z,10.90
2019-01-10T03:38:37.562Z,10.90
2019-01-10T03:41:08.501Z,10.90
2019-01-10T03:43:46.539Z,10.90
2019-01-10T03:46:08.411Z,10.90
2019-01-10T03:48:38.208Z,10.90
2019-01-10T03:51:08.102Z,10.90
2019-01-10T03:53:37.657Z,10.90
2019-01-10T03:56:07.997Z,10.90
2019-01-10T03:58:39.810Z,10.80
2019-01-10T04:01:10.378Z,10.80
2019-01-10T04:03:41.014Z,10.80
2019-01-10T04:06:10.547Z,10.80
2019-01-10T04:08:40.188Z,10.80
2019-01-10T04:11:09.934Z,10.80
2019-01-10T04:13:39.202Z,10.80
2019-01-10T04:16:12.463Z,10.80
2019-01-10T04:18:42.009Z,10.80
2019-01-10T04:21:16.943Z,10.80
2019-01-10T04:23:41.764Z,10.90
2019-01-10T04:26:13.287Z,11.00
2019-01-10T04:28:51.069Z,11.00
2019-01-10T04:31:21.788Z,11.00
2019-01-10T04:33:55.370Z,11.00
2019-01-10T04:36:24.771Z,11.00
2019-01-10T04:38:54.583Z,11.00
2019-01-10T04:41:28.533Z,11.00
2019-01-10T04:44:06.899Z,11.00
2019-01-10T04:46:30.026Z,11.00
2019-01-10T04:48:59.794Z,11.00
2019-01-10T04:51:29.430Z,11.00
2019-01-10T04:53:59.157Z,11.00
2019-01-10T04:56:28.758Z,10.90
2019-01-10T04:58:58.281Z,10.90
2019-01-10T05:01:28.392Z,11.00
2019-01-10T05:03:58.030Z,11.00
2019-01-10T05:06:27.487Z,11.00
2019-01-10T05:08:57.754Z,10.90
2019-01-10T05:11:27.766Z,11.00
2019-01-10T05:13:57.452Z,10.90
2019-01-10T05:16:27.292Z,10.90
2019-01-10T05:18:58.994Z,10.90
2019-01-10T05:21:29.699Z,10.90
2019-01-10T05:23:59.755Z,10.90
2019-01-10T05:26:29.347Z,11.00
2019-01-10T05:28:59.754Z,11.00
2019-01-10T05:31:29.509Z,11.00
2019-01-10T05:33:59.831Z,11.00
2019-01-10T05:36:29.267Z,11.00
2019-01-10T05:38:59.102Z,11.00
2019-01-10T05:41:28.799Z,11.00
2019-01-10T05:46:48.124Z,11.00
2019-01-10T05:49:10.520Z,11.00
2019-01-10T05:51:40.398Z,11.00
2019-01-10T05:54:10.271Z,11.00
2019-01-10T05:56:43.395Z,11.00
2019-01-10T05:59:13.038Z,10.90
2019-01-10T06:01:42.690Z,11.00
2019-01-10T06:04:12.501Z,11.00
2019-01-10T06:06:42.638Z,11.00
2019-01-10T06:09:14.345Z,10.90
2019-01-10T06:11:44.190Z,10.90
2019-01-10T06:14:14.266Z,10.80
2019-01-10T06:16:45.209Z,10.90
2019-01-10T06:19:14.249Z,10.90
2019-01-10T06:21:44.012Z,11.00
2019-01-10T06:24:13.796Z,11.00
2019-01-10T06:26:44.277Z,11.00
2019-01-10T06:29:13.812Z,10.90
2019-01-10T06:31:43.496Z,11.00
2019-01-10T06:34:13.090Z,11.00
2019-01-10T06:36:44.983Z,11.00
2019-01-10T06:39:14.859Z,11.00
2019-01-10T06:41:44.494Z,11.10
2019-01-10T06:44:14.381Z,11.00
2019-01-10T06:46:44.664Z,11.00
2019-01-10T06:49:14.595Z,11.00
2019-01-10T06:51:45.523Z,11.00
2019-01-10T06:54:15.275Z,11.00
2019-01-10T06:56:44.894Z,11.00
2019-01-10T06:59:14.901Z,11.00
2019-01-10T07:01:44.587Z,11.00
2019-01-10T07:04:14.161Z,10.90
2019-01-10T07:06:43.728Z,10.90
2019-01-10T07:09:13.482Z,10.90
2019-01-10T07:11:43.098Z,10.90
2019-01-10T07:14:13.095Z,10.90
2019-01-10T07:16:42.767Z,10.90
2019-01-10T07:19:12.385Z,10.90
2019-01-10T07:21:57.140Z,10.90
2019-01-10T07:24:26.721Z,10.90
2019-01-10T07:27:00.264Z,10.80
2019-01-10T07:29:30.258Z,10.80
2019-01-10T07:32:00.269Z,10.80
2019-01-10T07:34:29.747Z,10.80
2019-01-10T07:36:59.358Z,10.80
2019-01-10T07:39:28.852Z,10.70
2019-01-10T07:41:59.346Z,10.80
2019-01-10T07:44:30.057Z,10.80
2019-01-10T07:47:00.678Z,10.90
2019-01-10T07:49:30.327Z,11.00
2019-01-10T07:51:59.984Z,11.00
2019-01-10T07:54:30.007Z,11.00
2019-01-10T07:57:00.920Z,11.00
2019-01-10T07:59:30.510Z,10.80
2019-01-10T08:02:00.225Z,10.80
2019-01-10T08:04:30.667Z,10.80
2019-01-10T08:07:00.029Z,10.70
2019-01-10T08:09:29.749Z,10.70
2019-01-10T08:12:00.560Z,10.70
2019-01-10T08:14:30.845Z,10.60
2019-01-10T08:17:00.253Z,10.70
2019-01-10T08:19:29.625Z,10.60
2019-01-10T08:21:59.907Z,10.50
2019-01-10T08:24:30.259Z,10.50
2019-01-10T08:27:00.065Z,10.50
2019-01-10T08:29:29.790Z,10.50
2019-01-10T08:31:59.342Z,10.60
2019-01-10T08:34:28.806Z,10.50
2019-01-10T08:36:58.881Z,10.50
2019-01-10T08:39:28.422Z,10.50
2019-01-10T08:41:59.334Z,10.50
2019-01-10T08:44:29.095Z,10.50
2019-01-10T08:47:00.171Z,10.50
2019-01-10T08:49:30.414Z,10.40
2019-01-10T08:51:59.680Z,10.40
2019-01-10T08:54:29.192Z,10.40
2019-01-10T08:56:58.684Z,10.40
2019-01-10T08:59:29.937Z,10.30
2019-01-10T09:02:01.770Z,10.40
2019-01-10T09:04:32.271Z,10.40
2019-01-10T09:07:01.769Z,10.40
2019-01-10T09:09:31.584Z,10.40
2019-01-10T09:12:02.252Z,10.40
2019-01-10T09:14:31.932Z,10.40
2019-01-10T09:17:01.337Z,10.50
2019-01-10T09:19:31.993Z,10.50
2019-01-10T09:22:02.363Z,10.50
2019-01-10T09:24:32.943Z,10.50
2019-01-10T09:27:02.880Z,10.50
2019-01-10T09:29:34.043Z,10.50
2019-01-10T09:32:03.442Z,10.50
2019-01-10T09:34:36.959Z,10.50
2019-01-10T09:37:06.240Z,10.60
2019-01-10T09:39:36.249Z,10.60
2019-01-10T09:42:05.998Z,10.60
2019-01-10T09:44:36.162Z,10.60
2019-01-10T09:47:05.764Z,10.70
2019-01-10T09:49:35.722Z,10.70
2019-01-10T09:52:06.196Z,10.80
2019-01-10T09:54:36.010Z,10.80
2019-01-10T09:57:05.899Z,10.80
2019-01-10T09:59:35.779Z,10.80
2019-01-10T10:02:09.110Z,10.70
2019-01-10T10:04:39.762Z,10.70
2019-01-10T10:07:09.341Z,10.70
2019-01-10T10:09:39.536Z,10.70
2019-01-10T10:12:09.303Z,10.70
2019-01-10T10:14:39.078Z,10.70
2019-01-10T10:17:09.644Z,10.80
2019-01-10T10:19:39.902Z,10.70
2019-01-10T10:22:12.363Z,10.80
2019-01-10T10:24:42.739Z,10.80
2019-01-10T10:27:13.542Z,10.80
2019-01-10T10:29:43.345Z,10.80
2019-01-10T10:32:13.386Z,10.80
2019-01-10T10:34:43.917Z,10.80
2019-01-10T10:37:13.418Z,10.80
2019-01-10T10:39:43.329Z,10.70
2019-01-10T10:42:12.773Z,10.80
2019-01-10T10:44:44.183Z,10.80
2019-01-10T10:47:13.730Z,10.80
2019-01-10T10:49:43.449Z,10.90
2019-01-10T10:52:15.357Z,10.90
2019-01-10T10:54:45.176Z,10.90
2019-01-10T10:57:15.837Z,10.90
2019-01-10T10:59:50.154Z,10.90
2019-01-10T11:02:20.705Z,10.80
2019-01-10T11:04:50.238Z,10.80
2019-01-10T11:07:19.835Z,10.80
2019-01-10T11:09:49.309Z,10.80
2019-01-10T11:12:18.904Z,10.80
2019-01-10T11:14:48.574Z,10.80
2019-01-10T11:17:18.412Z,10.80
2019-01-10T11:19:47.935Z,10.90
2019-01-10T11:22:18.060Z,10.80
2019-01-10T11:24:48.276Z,10.90
2019-01-10T11:27:17.854Z,10.90
2019-01-10T11:29:47.528Z,10.90
2019-01-10T11:32:17.077Z,10.90
2019-01-10T11:34:48.265Z,10.90
2019-01-10T11:37:17.940Z,10.90
2019-01-10T11:39:47.496Z,10.80
2019-01-10T11:42:19.085Z,10.80
2019-01-10T11:44:48.683Z,10.80
2019-01-10T11:47:20.521Z,10.80
2019-01-10T11:49:50.250Z,10.80
2019-01-10T11:52:20.250Z,10.80
2019-01-10T11:54:50.693Z,10.80
2019-01-10T11:57:20.439Z,10.80
2019-01-10T11:59:50.986Z,10.90
2019-01-10T12:02:20.722Z,10.90
2019-01-10T12:04:50.486Z,10.90
2019-01-10T12:07:20.222Z,10.90
2019-01-10T12:09:49.770Z,10.90
2019-01-10T12:12:20.710Z,10.90
2019-01-10T12:14:50.218Z,10.90
2019-01-10T12:17:19.865Z,10.90
2019-01-10T12:19:49.670Z,10.90
2019-01-10T12:22:19.982Z,10.90
2019-01-10T12:24:49.917Z,10.90
2019-01-10T12:27:19.719Z,10.90
2019-01-10T12:29:50.023Z,10.90
2019-01-10T12:32:20.164Z,10.90
2019-01-10T12:34:49.686Z,10.90
2019-01-10T12:37:20.097Z,11.00
2019-01-10T12:39:49.785Z,10.90
2019-01-10T12:42:19.525Z,11.00
2019-01-10T12:44:49.248Z,11.00
2019-01-10T12:47:19.961Z,11.00
2019-01-10T12:49:49.719Z,10.90
2019-01-10T12:52:21.528Z,10.90
2019-01-10T12:54:52.823Z,10.90
2019-01-10T12:57:22.805Z,10.90
2019-01-10T12:59:52.390Z,10.90
2019-01-10T13:02:22.235Z,10.90
2019-01-10T13:04:51.761Z,10.90
2019-01-10T13:07:21.718Z,10.90
2019-01-10T13:09:52.413Z,10.90
2019-01-10T13:12:22.261Z,10.90
2019-01-10T13:14:51.887Z,10.90
2019-01-10T13:17:21.499Z,10.90
2019-01-10T13:19:51.115Z,10.90
2019-01-10T13:22:20.678Z,10.80
2019-01-10T13:24:50.674Z,10.90
2019-01-10T13:27:24.585Z,10.90
2019-01-10T13:29:54.623Z,11.00
2019-01-10T13:32:24.314Z,11.00
2019-01-10T13:34:54.641Z,11.00
2019-01-10T13:37:24.397Z,11.00
2019-01-10T13:39:54.517Z,11.00
2019-01-10T13:42:24.849Z,10.90
2019-01-10T13:44:54.412Z,10.90
2019-01-10T13:47:23.785Z,10.90
2019-01-10T13:49:53.275Z,10.90
2019-01-10T13:52:24.428Z,10.90
2019-01-10T13:54:54.638Z,10.90
2019-01-10T13:57:24.354Z,10.90
2019-01-10T13:59:54.202Z,10.90
2019-01-10T14:02:24.102Z,10.90
2019-01-10T14:04:53.628Z,10.90
2019-01-10T14:07:23.374Z,11.00
2019-01-10T14:09:55.299Z,10.90
2019-01-10T14:12:25.163Z,10.90
2019-01-10T14:14:54.955Z,10.90
2019-01-10T14:17:24.759Z,10.80
2019-01-10T14:19:55.307Z,10.90
2019-01-10T14:22:24.846Z,10.90
2019-01-10T14:24:54.419Z,10.90
2019-01-10T14:27:23.993Z,10.80
2019-01-10T14:29:53.925Z,10.80
2019-01-10T14:32:24.837Z,10.80
2019-01-10T14:34:54.933Z,10.80
2019-01-10T14:37:24.365Z,10.80
2019-01-10T14:39:54.152Z,10.70
2019-01-10T14:42:23.787Z,10.70
2019-01-10T14:44:54.509Z,10.70
2019-01-10T14:47:25.112Z,10.70
2019-01-10T14:49:55.428Z,10.80
2019-01-10T14:52:27.070Z,10.70
2019-01-10T14:54:57.078Z,10.70
2019-01-10T14:57:26.519Z,10.80
2019-01-10T14:59:56.262Z,10.70
2019-01-10T15:02:26.710Z,10.70
2019-01-10T15:04:56.641Z,10.80
2019-01-10T15:07:26.377Z,10.80
2019-01-10T15:09:56.365Z,10.80
2019-01-10T15:12:26.636Z,10.80
2019-01-10T15:14:56.772Z,10.80
2019-01-10T15:17:44.650Z,10.80
2019-01-10T15:20:15.961Z,10.70
2019-01-10T15:22:45.514Z,10.70
2019-01-10T15:25:15.230Z,10.70
2019-01-10T15:27:44.774Z,10.80
2019-01-10T15:30:19.628Z,10.80
2019-01-10T15:32:49.973Z,10.80
2019-01-10T15:35:19.480Z,10.70
2019-01-10T15:37:49.296Z,10.70
2019-01-10T15:40:22.772Z,10.70
2019-01-10T15:42:52.510Z,10.70
2019-01-10T15:45:23.489Z,10.80
2019-01-10T15:47:54.467Z,10.80
2019-01-10T15:50:24.142Z,10.80
2019-01-10T15:52:54.835Z,10.90
2019-01-10T15:55:24.423Z,10.80
2019-01-10T15:57:53.860Z,10.90
2019-01-10T16:00:24.005Z,10.90
2019-01-10T16:02:53.577Z,10.90
2019-01-10T16:05:23.915Z,10.80
2019-01-10T16:07:53.707Z,10.90
2019-01-10T16:10:23.020Z,10.90
2019-01-10T16:12:53.182Z,10.90
2019-01-10T16:15:24.291Z,10.90
2019-01-10T16:17:54.529Z,10.90
2019-01-10T16:20:27.027Z,10.90
2019-01-10T16:22:57.716Z,10.90
2019-01-10T16:25:27.864Z,11.00
2019-01-10T16:27:58.562Z,11.10
2019-01-10T16:30:28.722Z,11.10
2019-01-10T16:32:59.348Z,11.10
2019-01-10T16:35:28.935Z,11.10
2019-01-10T16:37:58.503Z,11.10
2019-01-10T16:40:29.614Z,11.10
2019-01-10T16:42:59.198Z,11.00
2019-01-10T16:45:29.168Z,11.10
2019-01-10T16:47:58.487Z,11.00
2019-01-10T16:50:28.227Z,11.10
2019-01-10T16:52:57.790Z,11.00
2019-01-10T16:55:27.202Z,11.00
2019-01-10T16:57:57.850Z,11.00
2019-01-10T17:00:27.775Z,11.00
2019-01-10T17:02:57.381Z,11.00
2019-01-10T17:05:26.964Z,11.10
2019-01-10T17:07:56.479Z,11.10
2019-01-10T17:10:26.203Z,11.10
2019-01-10T17:12:55.887Z,11.10
2019-01-10T17:15:25.279Z,11.10
2019-01-10T17:17:55.775Z,11.10
2019-01-10T17:20:26.025Z,11.10
2019-01-10T17:22:56.369Z,11.30
2019-01-10T17:25:26.053Z,11.40
2019-01-10T17:27:55.777Z,11.40
2019-01-10T17:30:25.752Z,11.30
2019-01-10T17:32:58.097Z,11.80
2019-01-10T17:35:28.246Z,11.80
2019-01-10T17:37:57.742Z,11.70
2019-01-10T17:40:27.992Z,11.70
2019-01-10T17:42:57.400Z,11.60
2019-01-10T17:45:29.321Z,11.60
2019-01-10T17:47:58.628Z,11.60
2019-01-10T17:50:28.354Z,11.60
2019-01-10T17:52:58.545Z,11.60
2019-01-10T17:55:28.083Z,11.80
2019-01-10T17:57:57.502Z,11.90
2019-01-10T18:00:27.868Z,12.00
2019-01-10T18:02:58.092Z,12.20
2019-01-10T18:05:27.991Z,12.20
2019-01-10T18:07:59.315Z,12.20
2019-01-10T18:10:30.744Z,12.20
2019-01-10T18:13:02.481Z,12.10
2019-01-10T18:15:32.053Z,12.20
2019-01-10T18:18:01.667Z,12.20
2019-01-10T18:20:32.878Z,12.10
2019-01-10T18:23:02.741Z,12.10
2019-01-10T18:25:32.440Z,12.10
2019-01-10T18:28:02.948Z,12.00
2019-01-10T18:30:32.459Z,12.00
2019-01-10T18:33:02.966Z,12.10
2019-01-10T18:35:33.038Z,12.10
2019-01-10T18:38:04.400Z,12.20
2019-01-10T18:40:35.003Z,12.20
2019-01-10T18:43:06.035Z,12.20
2019-01-10T18:45:36.878Z,12.20
2019-01-10T18:48:06.783Z,12.30
2019-01-10T18:50:36.385Z,12.50
2019-01-10T18:53:07.644Z,12.70
2019-01-10T18:55:46.428Z,12.80
2019-01-10T18:58:16.160Z,12.90
2019-01-10T19:00:47.226Z,12.70
2019-01-10T19:03:16.775Z,12.70
2019-01-10T19:05:46.237Z,12.50
2019-01-10T19:08:16.063Z,12.50
2019-01-10T19:10:45.573Z,12.40
2019-01-10T19:13:16.036Z,12.30
2019-01-10T19:15:46.108Z,12.30
2019-01-10T19:18:16.539Z,12.30
2019-01-10T19:20:47.404Z,12.20
2019-01-10T19:23:17.099Z,12.20
2019-01-10T19:25:47.547Z,12.10
2019-01-10T19:28:17.241Z,12.10
2019-01-10T19:30:46.919Z,12.10
2019-01-10T19:33:16.876Z,12.10
2019-01-10T19:35:47.328Z,12.10
2019-01-10T19:38:16.962Z,12.00
2019-01-10T19:40:46.483Z,12.00
2019-01-10T19:43:17.433Z,12.00
2019-01-10T19:45:48.005Z,12.10
2019-01-10T19:48:17.638Z,11.90
2019-01-10T19:50:48.473Z,12.00
2019-01-10T19:53:18.416Z,12.10
2019-01-10T19:55:48.167Z,12.20
2019-01-10T19:58:17.849Z,12.10
2019-01-10T20:00:47.628Z,12.30
2019-01-10T20:03:17.021Z,12.30
2019-01-10T20:05:46.507Z,12.30
2019-01-10T20:08:17.666Z,12.30
2019-01-10T20:13:37.533Z,12.60
2019-01-10T20:16:08.255Z,12.90
2019-01-10T20:18:38.525Z,12.80
2019-01-10T20:21:08.125Z,12.80
2019-01-10T20:23:37.990Z,13.00
2019-01-10T20:26:07.797Z,13.10
2019-01-10T20:28:38.211Z,13.10
2019-01-10T20:31:07.695Z,13.30
2019-01-10T20:33:38.044Z,13.30
2019-01-10T20:36:08.315Z,13.30
2019-01-10T20:38:42.518Z,13.30
2019-01-10T20:41:13.106Z,13.20
2019-01-10T20:43:42.999Z,13.10
2019-01-10T20:46:13.500Z,13.30
2019-01-10T20:48:43.160Z,13.30
2019-01-10T20:51:13.738Z,13.40
2019-01-10T20:53:44.335Z,13.50
2019-01-10T20:56:14.167Z,13.40
2019-01-10T20:58:44.015Z,13.30
2019-01-10T21:01:13.631Z,13.20
2019-01-10T21:03:44.154Z,12.90
2019-01-10T21:06:13.645Z,12.90
2019-01-10T21:08:45.464Z,12.70
2019-01-10T21:11:15.220Z,12.70
2019-01-10T21:13:44.856Z,12.70
2019-01-10T21:16:15.463Z,12.70
2019-01-10T21:18:45.068Z,12.60
2019-01-10T21:21:14.553Z,12.50
2019-01-10T21:23:48.577Z,12.40
2019-01-10T21:26:18.887Z,12.30
2019-01-10T21:28:48.708Z,12.20
2019-01-10T21:31:19.844Z,12.20
2019-01-10T21:33:49.315Z,12.10
2019-01-10T21:38:54.421Z,12.10
2019-01-10T21:41:25.416Z,12.10
2019-01-10T21:43:54.926Z,12.00
2019-01-10T21:46:25.033Z,12.00
2019-01-10T21:48:54.901Z,12.00
2019-01-10T21:51:25.114Z,12.00
2019-01-10T21:53:56.247Z,12.10
2019-01-10T21:56:27.025Z,12.10
2019-01-10T21:58:56.657Z,12.10
2019-01-10T22:01:27.835Z,12.10
2019-01-10T22:03:57.423Z,12.10
2019-01-10T22:06:28.072Z,12.10
2019-01-10T22:08:58.274Z,12.10
2019-01-10T22:11:29.056Z,12.00
2019-01-10T22:14:00.042Z,12.00
2019-01-10T22:16:30.871Z,12.00
2019-01-10T22:19:01.134Z,11.90
2019-01-10T22:21:30.833Z,11.90
2019-01-10T22:24:00.448Z,11.90
2019-01-10T22:26:29.927Z,11.90
2019-01-10T22:28:59.583Z,11.90
2019-01-10T22:31:29.405Z,11.80
2019-01-10T22:33:59.531Z,11.70
2019-01-10T22:36:28.831Z,11.80
2019-01-10T22:38:59.489Z,11.80
2019-01-10T22:41:29.496Z,11.90
2019-01-10T22:43:59.028Z,11.90
2019-01-10T22:46:28.688Z,11.90
2019-01-10T22:48:58.728Z,11.90
2019-01-10T22:51:28.591Z,12.00
2019-01-10T22:53:58.159Z,12.00
2019-01-10T22:56:28.664Z,12.00
2019-01-10T22:58:58.627Z,12.00
2019-01-10T23:01:30.351Z,12.00
2019-01-10T23:03:59.843Z,12.00
2019-01-10T23:06:30.365Z,12.00
2019-01-10T23:09:01.139Z,12.00
2019-01-10T23:11:30.488Z,12.00
2019-01-10T23:14:01.056Z,12.00
2019-01-10T23:16:30.962Z,12.00
2019-01-10T23:19:00.566Z,12.00
2019-01-10T23:21:30.210Z,12.00
2019-01-10T23:24:01.273Z,12.00
2019-01-10T23:26:30.910Z,11.90
2019-01-10T23:29:00.960Z,11.90
2019-01-10T23:31:31.507Z,11.90
2019-01-10T23:34:04.146Z,11.90
2019-01-10T23:36:34.758Z,11.90
2019-01-10T23:39:12.081Z,11.90
2019-01-10T23:41:41.940Z,11.90
2019-01-10T23:44:11.307Z,11.90
2019-01-10T23:46:40.757Z,11.80
2019-01-10T23:49:10.539Z,11.80
2019-01-10T23:51:40.502Z,11.80
2019-01-10T23:54:09.968Z,11.70
2019-01-10T23:56:39.661Z,11.60
2019-01-10T23:59:09.527Z,11.60
